Current Conditions
Clear
Conditions



Pressure
30.4 (inHG) - 1029.42 (mb)
Visibility

10.0 (miles) - 16.1 (km)
Temperature
14  °F
Temperature
-11  °F
Dewpoint
31  %
 Humidity
Wind Speed
8  mph
7  kts
13  km/h
3.6  m/s
Wind Direction
N
45°
E
90°
135°
S
180°
225°
W
270°
315°
 330°

North North
West
Airport Data
KMHT
Manchester-Boston Regional Airport
Metar :KMHT 270053Z 33007KT 10SM CLR M10/M24 A3040 RMK AO2 SLP319 T11001239
Wed 26th January 19:53 pm
Raw Metar Info
Raw METAR is the most common format in the world for the transmission of observational weather data. It is highly standardized through the International Civil Aviation Organization (ICAO), which allows it to be understood throughout most of the world.
API Info
Data Provided by
https://www.checkwx.com/weather/KMHT

Aviation Weather providing METAR, TAF, AIRMET, SIGMET and OUTLOOK Weather Reports
© Info
CSS/SVG/PHP scripts were developed by weather34 for use in the weather34 template © 2015-2022

Guide Info provided by Metar-Wikipedia